Time;durP1;ratioP1;P1;durP2;ratioP2;P2;SDS_P1;SDS_P2;PMS_P1;PMS_P2;Temp;Humidity;BMP_temperature;BMP_pressure;BME280_temperature;BME280_humidity;BME280_pressure;Samples;Min_cycle;Max_cycle;Signal;HPM_P1;HPM_P2
2022/08/24 00:01:19;;;;;;;2.83;2.07;;;18.90;1.00;;;;;;5094043;28;20410;-67
2022/08/24 00:03:49;;;;;;;2.67;2.40;;;18.90;1.00;;;;;;5093748;28;20418;-74
2022/08/24 00:06:18;;;;;;;2.13;1.93;;;18.90;1.00;;;;;;5074950;28;20415;-74
2022/08/24 00:08:46;;;;;;;3.00;2.30;;;18.90;1.00;;;;;;5093824;28;20416;-67
2022/08/24 00:11:11;;;;;;;2.87;2.07;;;18.90;1.00;;;;;;5093763;28;20400;-67
2022/08/24 00:13:38;;;;;;;2.77;2.57;;;18.90;1.00;;;;;;5094036;28;20407;-74
2022/08/24 00:16:06;;;;;;;2.73;1.77;;;18.90;1.00;;;;;;5092163;28;20692;-73
2022/08/24 00:18:40;;;;;;;1.80;1.70;;;18.90;1.00;;;;;;5075039;28;20458;-68
2022/08/24 00:21:15;;;;;;;2.33;1.70;;;18.90;1.00;;;;;;5093429;28;20406;-67
2022/08/24 00:23:41;;;;;;;2.53;2.00;;;18.90;1.00;;;;;;5075566;28;20399;-67
2022/08/24 00:26:08;;;;;;;3.30;2.30;;;18.90;1.00;;;;;;5092683;28;20449;-74
2022/08/24 00:28:44;;;;;;;;;;;;;;;;;;;;;
2022/08/24 00:31:11;;;;;;;6.47;2.60;;;18.80;1.00;;;;;;5093479;28;20405;-74
2022/08/24 00:33:38;;;;;;;3.03;2.57;;;18.80;1.00;;;;;;5075618;28;20414;-67
2022/08/24 00:36:04;;;;;;;2.67;2.10;;;18.80;1.00;;;;;;5092859;28;20403;-68
2022/08/24 00:38:34;;;;;;;3.60;1.70;;;18.80;1.00;;;;;;5074561;28;20471;-67
2022/08/24 00:41:00;;;;;;;1.93;1.73;;;18.80;1.00;;;;;;5093610;28;20733;-74
2022/08/24 00:43:27;;;;;;;2.30;2.10;;;18.80;1.00;;;;;;5094063;28;20986;-74
2022/08/24 00:45:59;;;;;;;4.40;2.20;;;18.80;1.00;;;;;;5093315;28;20880;-73
2022/08/24 00:48:31;;;;;;;2.67;2.47;;;18.80;1.00;;;;;;5093017;28;20426;-67
2022/08/24 00:51:13;;;;;;;4.50;2.17;;;18.80;1.00;;;;;;5093286;28;20407;-67
2022/08/24 00:53:54;;;;;;;2.10;1.90;;;18.80;1.00;;;;;;5093331;28;20954;-74
2022/08/24 00:56:25;;;;;;;2.73;2.53;;;18.80;1.00;;;;;;5092071;28;20482;-68
2022/08/24 00:59:01;;;;;;;3.37;2.10;;;18.80;1.00;;;;;;5093302;28;20416;-74
2022/08/24 01:01:31;;;;;;;4.13;2.27;;;18.80;1.00;;;;;;5075015;28;20796;-74
2022/08/24 01:04:04;;;;;;;3.10;2.30;;;18.70;1.00;;;;;;5093203;28;20395;-73
2022/08/24 01:06:32;;;;;;;2.70;2.07;;;18.70;1.00;;;;;;5074502;28;20408;-73
2022/08/24 01:08:59;;;;;;;5.73;2.20;;;18.70;1.00;;;;;;5093082;28;20419;-67
2022/08/24 01:11:32;;;;;;;2.90;1.60;;;18.70;1.00;;;;;;5093114;28;20408;-67
2022/08/24 01:13:59;;;;;;;3.27;2.40;;;18.70;1.00;;;;;;5093107;28;20400;-73
2022/08/24 01:19:37;;;;;;;3.67;2.17;;;18.60;1.00;;;;;;5093166;28;20426;-73
2022/08/24 01:22:15;;;;;;;2.47;2.27;;;18.70;1.00;;;;;;5093001;28;20482;-74
2022/08/24 01:24:42;;;;;;;2.33;2.13;;;18.60;1.00;;;;;;5092998;28;20411;-67
2022/08/24 01:27:10;;;;;;;4.90;2.50;;;18.60;1.00;;;;;;5092345;28;20963;-67
2022/08/24 01:29:37;;;;;;;5.87;2.30;;;18.50;1.00;;;;;;5096589;28;20435;-73
2022/08/24 01:32:03;;;;;;;2.30;2.10;;;18.50;1.00;;;;;;5096341;28;20392;-67
2022/08/24 01:34:29;;;;;;;3.53;2.17;;;18.60;1.00;;;;;;5096650;28;20484;-74
2022/08/24 01:36:56;;;;;;;3.83;2.40;;;18.50;1.00;;;;;;5095828;28;20895;-67
2022/08/24 01:39:32;;;;;;;4.40;2.03;;;18.50;1.00;;;;;;5096716;28;20453;-74
2022/08/24 01:41:59;;;;;;;7.03;2.80;;;18.50;1.00;;;;;;5096354;28;20468;-73
2022/08/24 01:44:28;;;;;;;3.20;2.80;;;18.50;1.00;;;;;;5097061;28;20888;-67
2022/08/24 01:46:55;;;;;;;2.57;2.33;;;18.50;1.00;;;;;;5095694;28;20402;-67
2022/08/24 01:49:26;;;;;;;4.27;2.23;;;18.40;1.00;;;;;;5095937;28;20478;-67
2022/08/24 01:51:56;;;;;;;5.07;2.67;;;18.40;1.00;;;;;;5087157;28;20432;-67
2022/08/24 01:54:22;;;;;;;4.13;2.30;;;18.40;1.00;;;;;;5074761;28;20440;-68
2022/08/24 01:56:48;;;;;;;2.70;2.50;;;18.40;1.00;;;;;;5056763;28;20428;-73
2022/08/24 01:59:14;;;;;;;3.13;2.40;;;18.40;1.00;;;;;;5071998;28;20854;-74
2022/08/24 02:01:45;;;;;;;2.67;2.47;;;18.30;1.00;;;;;;5072153;28;20499;-67
2022/08/24 02:04:19;;;;;;;2.60;2.40;;;18.40;1.00;;;;;;5089439;28;20442;-67
2022/08/24 02:06:45;;;;;;;7.07;2.43;;;18.30;1.00;;;;;;5093171;28;20860;-74
2022/08/24 02:09:12;;;;;;;2.53;2.33;;;18.40;1.00;;;;;;5084161;28;20452;-74
2022/08/24 02:11:39;;;;;;;2.23;2.03;;;18.40;1.00;;;;;;5064699;28;20431;-74
2022/08/24 02:14:05;;;;;;;4.10;2.53;;;18.40;1.00;;;;;;5075147;28;20946;-67
2022/08/24 02:16:31;;;;;;;2.83;2.37;;;18.30;1.00;;;;;;5074864;28;20400;-67
2022/08/24 02:18:58;;;;;;;3.70;2.70;;;18.30;1.00;;;;;;5083195;28;20513;-67
2022/08/24 02:21:24;;;;;;;2.40;2.20;;;18.30;1.00;;;;;;5092136;28;20182;-73
2022/08/24 02:23:51;;;;;;;2.40;2.30;;;18.30;1.00;;;;;;5084752;28;20421;-73
2022/08/24 02:26:18;;;;;;;3.10;2.40;;;18.30;1.00;;;;;;5074620;28;20432;-67
2022/08/24 02:28:44;;;;;;;2.60;1.77;;;18.30;1.00;;;;;;5084182;28;20958;-67
2022/08/24 02:31:12;;;;;;;2.33;2.00;;;18.30;1.00;;;;;;5085698;28;20501;-67
2022/08/24 02:33:39;;;;;;;5.20;2.50;;;18.30;1.00;;;;;;5057919;28;20921;-74
2022/08/24 02:36:07;;;;;;;6.93;2.67;;;18.30;1.00;;;;;;5074273;28;20485;-73
2022/08/24 02:38:33;;;;;;;2.47;2.10;;;18.30;1.00;;;;;;5081178;28;20447;-67
2022/08/24 02:40:59;;;;;;;2.70;2.50;;;18.30;1.00;;;;;;5091565;28;20434;-69
2022/08/24 02:43:26;;;;;;;5.23;2.50;;;18.30;1.00;;;;;;5092964;28;20498;-68
2022/08/24 02:45:53;;;;;;;3.30;2.33;;;18.20;1.00;;;;;;5092822;28;20428;-70
2022/08/24 02:48:19;;;;;;;2.67;2.47;;;18.10;1.00;;;;;;5093617;28;20479;-67
2022/08/24 02:50:49;;;;;;;2.60;2.40;;;18.20;1.00;;;;;;5076316;28;20431;-73
2022/08/24 02:53:17;;;;;;;3.70;2.10;;;18.20;1.00;;;;;;5073867;28;20531;-71
2022/08/24 02:55:43;;;;;;;2.30;2.10;;;18.10;1.00;;;;;;5057894;28;20515;-67
2022/08/24 02:58:11;;;;;;;5.43;3.13;;;18.20;1.00;;;;;;5061651;28;20467;-73
2022/08/24 03:00:41;;;;;;;6.20;2.23;;;18.10;1.00;;;;;;5074245;28;20436;-74
2022/08/24 03:03:10;;;;;;;3.43;2.20;;;18.10;1.00;;;;;;5089795;28;20463;-67
2022/08/24 03:05:36;;;;;;;3.63;2.30;;;18.00;1.00;;;;;;5093084;28;20785;-67
2022/08/24 03:08:05;;;;;;;5.30;2.33;;;18.00;1.00;;;;;;5077790;28;20435;-73
2022/08/24 03:10:44;;;;;;;7.97;2.80;;;18.00;1.00;;;;;;5076276;28;20424;-74
2022/08/24 03:13:10;;;;;;;3.03;2.30;;;18.00;1.00;;;;;;5092363;28;20434;-73
2022/08/24 03:15:36;;;;;;;3.03;2.30;;;18.00;1.00;;;;;;5093733;28;20427;-73
2022/08/24 03:18:02;;;;;;;2.63;2.43;;;18.00;1.00;;;;;;5092943;28;20189;-68
2022/08/24 03:20:28;;;;;;;3.00;2.70;;;18.00;1.00;;;;;;5074042;28;20393;-74
2022/08/24 03:22:56;;;;;;;2.80;2.10;;;18.00;1.00;;;;;;5084906;28;20461;-73
2022/08/24 03:25:25;;;;;;;3.77;2.30;;;18.00;1.00;;;;;;5055706;28;20561;-73
2022/08/24 03:28:04;;;;;;;3.40;3.10;;;17.90;1.00;;;;;;5078497;28;20490;-74
2022/08/24 03:30:30;;;;;;;3.53;2.50;;;17.90;1.00;;;;;;5068216;28;20490;-74
2022/08/24 03:32:56;;;;;;;4.97;3.00;;;17.90;1.00;;;;;;5089663;28;20428;-73
2022/08/24 03:35:31;;;;;;;8.37;3.47;;;17.90;1.00;;;;;;5075172;28;20232;-67
2022/08/24 03:38:03;;;;;;;4.90;2.50;;;17.90;1.00;;;;;;5072372;28;20439;-67
2022/08/24 03:40:39;;;;;;;2.67;2.47;;;17.80;1.00;;;;;;5073386;28;20471;-67
2022/08/24 03:43:08;;;;;;;4.47;2.93;;;17.80;1.00;;;;;;5069663;28;20801;-71
2022/08/24 03:45:34;;;;;;;5.00;3.47;;;17.80;1.00;;;;;;5070903;28;20460;-73
2022/08/24 03:48:00;;;;;;;5.57;3.33;;;17.80;1.00;;;;;;5071826;28;20452;-73
2022/08/24 03:50:26;;;;;;;7.03;2.97;;;17.80;1.00;;;;;;5076967;28;20423;-74
2022/08/24 03:52:52;;;;;;;5.63;2.70;;;17.80;1.00;;;;;;5092418;28;20450;-69
2022/08/24 03:55:19;;;;;;;4.93;3.00;;;17.80;1.00;;;;;;5075705;28;20508;-74
2022/08/24 03:57:45;;;;;;;5.10;2.90;;;17.80;1.00;;;;;;5091883;28;20458;-73
2022/08/24 04:00:12;;;;;;;6.60;3.50;;;17.80;1.00;;;;;;5075475;28;20432;-74
2022/08/24 04:02:38;;;;;;;3.27;2.97;;;17.80;1.00;;;;;;5093670;28;21077;-74
2022/08/24 04:05:06;;;;;;;3.60;3.30;;;17.80;1.00;;;;;;5075532;28;20522;-67
2022/08/24 04:07:32;;;;;;;9.13;3.13;;;17.80;1.00;;;;;;5075961;28;20498;-68
2022/08/24 04:09:58;;;;;;;2.90;2.57;;;17.80;1.00;;;;;;5084683;28;20420;-73
2022/08/24 04:12:24;;;;;;;5.20;3.47;;;17.80;1.00;;;;;;5082139;28;20455;-67
2022/08/24 04:14:56;;;;;;;4.53;3.33;;;17.80;1.00;;;;;;5077766;28;20428;-67
2022/08/24 04:20:27;;;;;;;7.13;3.70;;;17.80;1.00;;;;;;5052541;28;20969;-73
2022/08/24 04:22:53;;;;;;;3.93;3.53;;;17.70;1.00;;;;;;5092340;28;20487;-67
2022/08/24 04:25:19;;;;;;;3.70;3.13;;;17.70;9.60;;;;;;5073126;28;20519;-67
2022/08/24 04:27:45;;;;;;;3.70;3.03;;;17.80;17.70;;;;;;5072232;28;20622;-68
2022/08/24 04:30:12;;;;;;;5.60;5.20;;;17.70;29.70;;;;;;5072615;28;20444;-67
2022/08/24 04:32:38;;;;;;;5.47;3.30;;;17.80;22.70;;;;;;5080353;28;20261;-73
2022/08/24 04:35:05;;;;;;;6.20;3.50;;;17.80;27.20;;;;;;5077672;28;20589;-68
2022/08/24 04:37:31;;;;;;;5.00;3.50;;;17.80;30.70;;;;;;5071907;28;20986;-74
2022/08/24 04:39:57;;;;;;;3.43;3.17;;;17.80;37.10;;;;;;5073077;28;20471;-73
2022/08/24 04:42:23;;;;;;;4.93;3.60;;;17.80;45.00;;;;;;5059916;28;20460;-73
2022/08/24 04:44:49;;;;;;;3.80;3.50;;;17.80;42.70;;;;;;5080995;28;20834;-74
2022/08/24 04:47:15;;;;;;;6.83;3.57;;;17.80;51.40;;;;;;5089236;28;20818;-74
2022/08/24 04:49:41;;;;;;;3.80;3.50;;;17.80;63.30;;;;;;5072465;28;20435;-67
2022/08/24 04:52:08;;;;;;;3.80;3.50;;;17.80;77.10;;;;;;5074835;28;21108;-73
2022/08/24 04:54:34;;;;;;;6.43;3.93;;;17.90;71.60;;;;;;5078748;28;20463;-74
2022/08/24 04:57:00;;;;;;;6.40;4.00;;;17.90;81.10;;;;;;5071733;28;20456;-74
2022/08/24 05:03:41;;;;;;;5.93;3.80;;;17.90;94.10;;;;;;5030661;28;20209;-68
2022/08/24 05:06:10;;;;;;;3.10;2.80;;;17.90;93.40;;;;;;5060285;28;20436;-70
2022/08/24 05:08:36;;;;;;;8.70;4.00;;;17.90;94.50;;;;;;5060171;28;20444;-72
2022/08/24 05:11:06;;;;;;;8.10;3.97;;;17.90;94.90;;;;;;5094975;28;20899;-68
2022/08/24 05:13:32;;;;;;;5.10;3.97;;;18.00;94.90;;;;;;5116268;28;20411;-68
2022/08/24 05:15:58;;;;;;;7.33;3.77;;;18.00;97.10;;;;;;5116966;28;20398;-69
2022/08/24 05:18:26;;;;;;;4.43;3.47;;;18.00;96.20;;;;;;5076912;28;20441;-75
2022/08/24 05:20:52;;;;;;;8.83;4.13;;;18.00;95.70;;;;;;5076795;28;20487;-75
2022/08/24 05:23:18;;;;;;;6.67;3.50;;;18.10;95.00;;;;;;5058621;28;20539;-69
2022/08/24 05:25:52;;;;;;;3.70;3.00;;;18.10;99.90;;;;;;5095357;28;20445;-71
2022/08/24 05:28:19;;;;;;;5.30;3.30;;;18.20;99.20;;;;;;5094500;28;20435;-69
2022/08/24 05:30:45;;;;;;;6.77;4.07;;;18.20;97.30;;;;;;5068272;28;20922;-68
2022/08/24 05:33:11;;;;;;;4.50;3.17;;;18.20;99.90;;;;;;5076480;28;20419;-68
2022/08/24 05:35:38;;;;;;;3.53;3.23;;;18.20;99.90;;;;;;5076315;28;20885;-68
2022/08/24 05:38:24;;;;;;;4.33;3.63;;;18.20;99.90;;;;;;5075153;28;20900;-74
2022/08/24 05:40:50;;;;;;;7.20;3.60;;;18.30;99.90;;;;;;5058041;28;20821;-75
2022/08/24 05:43:19;;;;;;;3.70;3.20;;;18.30;99.90;;;;;;5076022;28;20459;-74
2022/08/24 05:45:46;;;;;;;4.53;3.20;;;18.30;99.90;;;;;;5075654;28;20190;-69
2022/08/24 05:48:12;;;;;;;5.10;3.33;;;18.30;99.90;;;;;;5074987;28;20498;-70
2022/08/24 05:50:38;;;;;;;4.33;3.60;;;18.40;99.90;;;;;;5095653;28;20470;-74
2022/08/24 05:53:03;;;;;;;3.23;2.93;;;18.40;99.90;;;;;;5096422;28;20166;-68
2022/08/24 05:55:32;;;;;;;7.67;4.17;;;18.50;99.90;;;;;;5096369;28;20224;-75
2022/08/24 05:57:58;;;;;;;7.37;3.50;;;18.60;99.90;;;;;;5077166;28;20196;-68
2022/08/24 06:00:24;;;;;;;15.60;3.57;;;18.60;99.90;;;;;;5094802;28;20941;-74
2022/08/24 06:02:51;;;;;;;5.43;3.67;;;18.70;99.90;;;;;;5095670;28;20528;-69
2022/08/24 06:05:17;;;;;;;3.87;3.57;;;18.70;99.90;;;;;;5096191;28;20189;-69
2022/08/24 06:07:43;;;;;;;3.13;2.80;;;18.80;99.90;;;;;;5095094;28;20458;-69
2022/08/24 06:10:10;;;;;;;3.53;3.00;;;18.80;99.90;;;;;;5075671;28;20510;-75
2022/08/24 06:12:36;;;;;;;4.40;3.10;;;18.80;99.90;;;;;;5096028;28;20491;-74
2022/08/24 06:15:12;;;;;;;;;;;;;;;;;;;;;
2022/08/24 06:17:38;;;;;;;2.90;2.70;;;18.90;99.90;;;;;;5095001;28;20211;-74
2022/08/24 06:20:06;;;;;;;4.60;3.30;;;19.00;99.90;;;;;;5094566;28;20986;-72
2022/08/24 06:22:32;;;;;;;9.37;2.80;;;19.00;99.90;;;;;;5095676;28;20439;-67
2022/08/24 06:27:44;;;;;;;4.43;2.50;;;19.20;99.90;;;;;;5095052;28;20402;-73
2022/08/24 06:30:10;;;;;;;4.17;2.20;;;19.20;99.90;;;;;;5094549;28;20439;-67
2022/08/24 06:32:45;;;;;;;3.00;2.63;;;19.30;99.90;;;;;;5095631;28;20400;-67
2022/08/24 06:35:13;;;;;;;10.80;2.60;;;19.40;99.90;;;;;;5095313;28;20435;-74
2022/08/24 06:37:39;;;;;;;3.43;2.23;;;19.50;99.90;;;;;;5094438;28;20427;-72
2022/08/24 06:40:06;;;;;;;5.60;2.57;;;19.50;99.90;;;;;;5094392;28;20514;-73
2022/08/24 06:42:33;;;;;;;4.80;2.50;;;19.60;99.90;;;;;;5095514;28;20462;-73
2022/08/24 06:44:59;;;;;;;2.33;2.23;;;19.70;95.60;;;;;;5095235;28;20403;-72
2022/08/24 06:47:25;;;;;;;3.00;2.63;;;19.70;95.30;;;;;;5094276;28;20403;-67
2022/08/24 06:49:51;;;;;;;2.47;2.27;;;19.80;93.50;;;;;;5094703;28;20427;-67
2022/08/24 06:52:17;;;;;;;4.17;2.73;;;19.80;80.90;;;;;;5095523;28;20408;-67
2022/08/24 06:54:43;;;;;;;3.30;2.20;;;19.90;66.50;;;;;;5095837;28;20174;-73
2022/08/24 06:57:08;;;;;;;4.20;1.80;;;20.00;70.10;;;;;;5076218;28;20419;-69
2022/08/24 06:59:44;;;;;;;3.50;2.23;;;20.00;65.70;;;;;;5093216;28;20486;-74
2022/08/24 07:02:11;;;;;;;5.90;3.27;;;20.10;54.60;;;;;;5074886;28;20255;-67
2022/08/24 07:04:37;;;;;;;2.53;2.33;;;20.20;58.70;;;;;;5074694;28;20886;-67
2022/08/24 07:07:06;;;;;;;2.80;2.07;;;20.30;10.60;;;;;;5073648;28;20488;-70
2022/08/24 07:09:32;;;;;;;3.77;2.20;;;20.30;1.00;;;;;;5087036;28;20616;-74
2022/08/24 07:11:57;;;;;;;3.27;2.33;;;20.40;1.00;;;;;;5094751;28;20407;-67
2022/08/24 07:14:24;;;;;;;8.57;2.10;;;20.40;1.00;;;;;;5077008;28;20420;-67
2022/08/24 07:16:50;;;;;;;4.90;2.10;;;20.50;1.00;;;;;;5093422;28;20173;-74
2022/08/24 07:19:15;;;;;;;3.40;2.10;;;20.60;1.00;;;;;;5075473;28;20455;-73
2022/08/24 07:21:41;;;;;;;3.93;1.60;;;20.70;1.00;;;;;;5094917;28;20458;-73
2022/08/24 07:24:07;;;;;;;2.97;1.80;;;20.80;1.00;;;;;;5094599;28;20169;-74
2022/08/24 07:26:34;;;;;;;2.17;2.03;;;20.90;1.00;;;;;;5093568;28;20399;-67
2022/08/24 07:29:06;;;;;;;6.13;2.10;;;21.00;1.00;;;;;;5093124;28;20553;-74
2022/08/24 07:31:35;;;;;;;2.70;2.37;;;21.00;1.00;;;;;;5094510;28;20414;-73
2022/08/24 07:34:02;;;;;;;4.77;2.03;;;21.00;1.00;;;;;;5094348;28;20400;-67
2022/08/24 07:36:28;;;;;;;2.63;1.67;;;21.10;1.00;;;;;;5093101;28;20399;-73
2022/08/24 07:38:54;;;;;;;3.60;1.97;;;21.20;1.00;;;;;;5074733;28;20483;-67
2022/08/24 07:41:23;;;;;;;2.37;1.73;;;21.20;1.00;;;;;;5094765;28;20912;-70
2022/08/24 07:43:49;;;;;;;2.40;1.77;;;21.40;1.00;;;;;;5091282;28;20182;-74
2022/08/24 07:46:15;;;;;;;4.20;1.80;;;21.50;1.00;;;;;;5093983;28;20502;-67
2022/08/24 07:48:41;;;;;;;2.10;1.77;;;21.60;1.00;;;;;;5079161;28;20662;-68
2022/08/24 07:51:16;;;;;;;5.33;2.30;;;21.70;1.00;;;;;;5073958;28;20385;-68
2022/08/24 07:53:43;;;;;;;3.33;2.30;;;21.70;1.00;;;;;;5073329;28;20176;-68
2022/08/24 07:56:11;;;;;;;9.00;1.90;;;21.70;1.00;;;;;;5073414;28;20497;-67
2022/08/24 07:58:37;;;;;;;8.10;2.80;;;21.80;1.00;;;;;;5076235;28;20475;-75
2022/08/24 08:01:05;;;;;;;3.00;2.10;;;21.90;1.00;;;;;;5093866;28;20929;-74
2022/08/24 08:03:32;;;;;;;3.23;2.10;;;21.90;1.00;;;;;;5093805;28;20454;-75
2022/08/24 08:06:04;;;;;;;3.10;1.70;;;21.90;1.00;;;;;;5093578;28;20407;-68
2022/08/24 08:12:08;;;;;;;2.50;1.70;;;22.00;1.00;;;;;;5055830;28;20428;-67
2022/08/24 08:14:34;;;;;;;2.77;2.30;;;22.10;1.00;;;;;;5093634;28;20431;-67
2022/08/24 08:17:00;;;;;;;4.77;2.60;;;22.20;1.00;;;;;;5092852;28;20445;-74
2022/08/24 08:19:26;;;;;;;2.37;2.07;;;22.30;1.00;;;;;;5093577;28;20419;-75
2022/08/24 08:24:38;;;;;;;2.63;1.77;;;22.40;1.00;;;;;;5073357;28;20180;-69
2022/08/24 08:27:05;;;;;;;3.60;1.73;;;22.50;1.00;;;;;;5072118;28;20396;-74
2022/08/24 08:29:33;;;;;;;5.17;1.80;;;22.60;1.00;;;;;;5055021;28;20444;-67
2022/08/24 08:31:59;;;;;;;2.43;1.60;;;22.70;1.00;;;;;;5072846;28;20857;-68
2022/08/24 08:34:26;;;;;;;3.20;1.40;;;22.80;1.00;;;;;;5073353;28;20440;-75
2022/08/24 08:36:53;;;;;;;3.73;1.90;;;22.90;1.00;;;;;;5072351;28;20400;-67
2022/08/24 08:39:20;;;;;;;6.67;2.27;;;22.90;1.00;;;;;;5072856;28;20420;-67
2022/08/24 08:42:22;;;;;;;2.13;2.00;;;23.00;1.00;;;;;;5072927;28;20443;-73
2022/08/24 08:44:54;;;;;;;1.60;1.40;;;23.20;1.00;;;;;;5091673;28;20473;-68
2022/08/24 08:47:42;;;;;;;2.30;1.40;;;23.20;1.00;;;;;;5074906;28;20416;-68
2022/08/24 08:50:20;;;;;;;3.47;1.90;;;23.40;1.00;;;;;;5093082;28;20448;-69
2022/08/24 08:52:52;;;;;;;2.93;1.57;;;23.50;1.00;;;;;;5093170;28;20403;-68
2022/08/24 08:55:43;;;;;;;7.53;2.30;;;23.70;1.00;;;;;;5093821;28;20407;-73
2022/08/24 08:58:46;;;;;;;2.17;1.50;;;23.90;1.00;;;;;;5076915;28;20447;-74
2022/08/24 09:01:18;;;;;;;3.80;1.93;;;24.20;1.00;;;;;;5073055;28;20408;-74
2022/08/24 09:04:05;;;;;;;1.50;1.40;;;24.40;1.00;;;;;;5072919;28;20451;-75
2022/08/24 09:06:53;;;;;;;5.67;2.30;;;24.50;1.00;;;;;;5074109;28;20436;-74
2022/08/24 09:09:55;;;;;;;3.67;1.50;;;24.70;1.00;;;;;;5093181;28;20776;-67
2022/08/24 09:12:42;;;;;;;3.30;2.20;;;25.00;1.00;;;;;;5078954;28;20453;-68
2022/08/24 09:15:35;;;;;;;1.50;1.10;;;25.10;1.00;;;;;;5093310;28;20439;-74
2022/08/24 09:18:22;;;;;;;3.37;1.50;;;25.30;1.00;;;;;;5076713;28;20903;-69
2022/08/24 09:21:02;;;;;;;4.83;2.07;;;25.40;1.00;;;;;;5072923;28;20404;-69
2022/08/24 09:23:59;;;;;;;7.70;2.80;;;25.50;1.00;;;;;;5079922;28;20461;-73
2022/08/24 09:26:57;;;;;;;3.00;1.80;;;25.50;1.00;;;;;;5091651;28;20794;-75
2022/08/24 09:29:55;;;;;;;3.63;1.90;;;25.40;1.00;;;;;;5093008;28;20858;-70
2022/08/24 09:32:33;;;;;;;3.00;1.40;;;25.40;1.00;;;;;;5074766;28;20497;-71
2022/08/24 09:35:02;;;;;;;15.03;4.83;;;25.50;1.00;;;;;;5092931;28;20464;-70
2022/08/24 09:37:54;;;;;;;6.87;2.43;;;25.70;1.00;;;;;;5088266;28;20427;-75
2022/08/24 09:40:52;;;;;;;1.60;1.37;;;25.90;1.00;;;;;;5033741;28;20408;-72
2022/08/24 09:43:39;;;;;;;3.70;1.57;;;26.20;1.00;;;;;;5072649;28;20849;-70
2022/08/24 09:46:31;;;;;;;3.70;1.60;;;26.50;1.00;;;;;;5053712;28;20404;-76
2022/08/24 09:49:28;;;;;;;9.13;2.13;;;26.70;1.00;;;;;;5083712;28;20424;-72
2022/08/24 09:51:57;;;;;;;4.67;1.57;;;26.90;1.00;;;;;;5096506;28;20169;-70
2022/08/24 09:54:49;;;;;;;7.13;1.40;;;27.00;1.00;;;;;;5076438;28;20431;-70
2022/08/24 09:57:27;;;;;;;2.53;1.30;;;27.00;1.00;;;;;;5095452;28;20399;-69
2022/08/24 10:00:15;;;;;;;4.30;1.80;;;27.20;1.00;;;;;;5095925;28;20404;-74
2022/08/24 10:03:02;;;;;;;2.17;1.27;;;27.50;1.00;;;;;;5096348;28;20528;-74
2022/08/24 10:06:00;;;;;;;5.30;1.80;;;27.80;1.00;;;;;;5096186;28;20820;-74
2022/08/24 10:08:58;;;;;;;3.33;1.90;;;28.10;1.00;;;;;;5095966;28;20782;-71
2022/08/24 10:11:30;;;;;;;2.23;1.47;;;28.40;1.00;;;;;;5040699;28;20438;-73
2022/08/24 10:14:26;;;;;;;1.53;1.43;;;28.30;1.00;;;;;;5095941;28;20407;-73
2022/08/24 10:17:16;;;;;;;3.93;1.10;;;28.40;1.00;;;;;;5095100;28;20436;-70
2022/08/24 10:20:12;;;;;;;2.27;1.40;;;28.50;1.00;;;;;;5077746;28;20404;-74
2022/08/24 10:22:55;;;;;;;1.83;1.43;;;28.60;1.00;;;;;;5095762;28;20455;-73
2022/08/24 10:25:47;;;;;;;5.90;1.40;;;28.90;1.00;;;;;;5095933;28;20446;-74
2022/08/24 10:28:35;;;;;;;1.20;1.00;;;29.10;1.00;;;;;;5077547;28;20439;-74
2022/08/24 10:31:24;;;;;;;1.97;1.57;;;29.30;1.00;;;;;;5095672;28;20768;-74
2022/08/24 10:34:10;;;;;;;4.70;1.43;;;29.40;1.00;;;;;;5049656;28;20900;-74
2022/08/24 10:37:06;;;;;;;4.50;1.60;;;29.50;1.00;;;;;;5074701;28;20408;-73
2022/08/24 10:39:56;;;;;;;5.93;1.47;;;29.60;1.00;;;;;;5075100;28;20420;-73
2022/08/24 10:45:35;;;;;;;2.70;1.20;;;30.10;1.00;;;;;;5075484;28;20730;-69
2022/08/24 10:48:01;;;;;;;3.40;1.97;;;30.20;1.00;;;;;;5074867;28;20412;-73
2022/08/24 10:50:56;;;;;;;1.77;1.30;;;30.30;1.00;;;;;;5074853;28;20397;-71
2022/08/24 10:53:27;;;;;;;1.30;1.20;;;30.40;1.00;;;;;;5074969;28;20415;-71
2022/08/24 10:56:10;;;;;;;1.90;1.20;;;30.30;1.00;;;;;;5074308;28;20412;-71
2022/08/24 10:58:39;;;;;;;6.07;1.50;;;30.30;1.00;;;;;;5074740;28;20430;-71
2022/08/24 11:01:32;;;;;;;1.60;1.10;;;30.20;1.00;;;;;;5074271;28;20758;-69
2022/08/24 11:04:07;;;;;;;2.53;2.03;;;30.30;1.00;;;;;;5073219;28;20427;-73
2022/08/24 11:06:35;;;;;;;5.27;1.53;;;30.70;1.00;;;;;;5073794;28;20399;-73
2022/08/24 11:09:06;;;;;;;6.40;1.57;;;31.10;1.00;;;;;;5074669;28;20416;-73
2022/08/24 11:11:35;;;;;;;4.77;1.30;;;31.30;1.00;;;;;;5074269;28;20403;-73
2022/08/24 11:14:03;;;;;;;1.60;1.30;;;31.60;1.00;;;;;;5074520;28;20468;-73
2022/08/24 11:16:38;;;;;;;2.17;1.43;;;31.70;1.00;;;;;;5073719;28;20391;-69
2022/08/24 11:19:09;;;;;;;1.90;1.30;;;31.80;1.00;;;;;;5074189;28;20412;-73
2022/08/24 11:21:53;;;;;;;2.03;1.20;;;32.00;1.00;;;;;;5056576;28;20401;-70
2022/08/24 11:24:23;;;;;;;4.20;1.60;;;32.10;1.00;;;;;;5074411;28;20459;-73
2022/08/24 11:27:21;;;;;;;1.83;1.50;;;32.20;1.00;;;;;;5073431;28;20450;-70
2022/08/24 11:29:52;;;;;;;2.80;1.17;;;32.50;1.00;;;;;;5069940;28;20432;-70
2022/08/24 11:33:00;;;;;;;4.10;1.37;;;32.40;1.00;;;;;;5073807;28;20753;-70
2022/08/24 11:35:34;;;;;;;4.90;1.37;;;32.40;1.00;;;;;;5012513;28;20505;-69
2022/08/24 11:38:17;;;;;;;4.30;1.60;;;32.30;1.00;;;;;;5011378;28;20481;-69
2022/08/24 11:41:02;;;;;;;3.83;1.67;;;32.60;1.00;;;;;;5036688;28;20497;-69
2022/08/24 11:44:11;;;;;;;3.93;1.70;;;32.80;1.00;;;;;;5073851;28;20487;-70
2022/08/24 11:46:45;;;;;;;2.23;1.93;;;32.90;1.00;;;;;;5055177;28;20491;-70
2022/08/24 11:49:37;;;;;;;1.90;1.63;;;33.30;1.00;;;;;;5073864;28;20423;-69
2022/08/24 11:52:03;;;;;;;2.07;1.60;;;33.50;1.00;;;;;;5055657;28;20420;-73
2022/08/24 11:54:47;;;;;;;3.72;1.65;;;33.50;1.00;;;;;;5055328;28;20461;-70
2022/08/24 11:57:28;;;;;;;3.10;2.07;;;33.70;1.00;;;;;;5072850;28;20207;-71
2022/08/24 11:59:57;;;;;;;2.17;1.37;;;34.10;1.00;;;;;;5073858;28;20905;-73
2022/08/24 12:02:46;;;;;;;6.53;2.00;;;34.60;1.00;;;;;;5073681;28;20503;-74
2022/08/24 12:05:33;;;;;;;3.43;1.60;;;34.80;1.00;;;;;;5026719;28;20503;-71
2022/08/24 12:08:26;;;;;;;2.60;1.53;;;35.00;1.00;;;;;;5072112;28;20431;-72
2022/08/24 12:11:18;;;;;;;2.73;1.30;;;35.30;1.00;;;;;;5055574;28;20423;-73
2022/08/24 12:14:04;;;;;;;2.00;1.80;;;35.20;1.00;;;;;;5054727;28;20450;-73
2022/08/24 12:16:45;;;;;;;6.80;1.33;;;35.20;1.00;;;;;;5072529;28;20400;-71
2022/08/24 12:19:28;;;;;;;3.30;1.53;;;34.70;1.00;;;;;;5073404;28;20826;-73
2022/08/24 12:21:57;;;;;;;3.27;1.50;;;34.20;1.00;;;;;;5073341;28;20944;-73
2022/08/24 12:24:33;;;;;;;3.60;1.90;;;33.70;1.00;;;;;;5073014;28;20404;-73
2022/08/24 12:27:13;;;;;;;3.33;1.40;;;33.40;1.00;;;;;;5072529;28;20745;-73
2022/08/24 12:29:50;;;;;;;3.30;1.67;;;32.90;1.00;;;;;;5055478;28;20428;-72
2022/08/24 12:32:36;;;;;;;1.60;1.30;;;32.30;1.00;;;;;;5073376;28;20424;-71
2022/08/24 12:35:17;;;;;;;1.50;1.13;;;31.60;1.00;;;;;;5073497;28;20504;-72
2022/08/24 12:38:08;;;;;;;2.70;1.30;;;31.00;1.00;;;;;;5054324;28;20533;-73
2022/08/24 12:40:44;;;;;;;4.30;1.77;;;30.60;1.00;;;;;;5055444;28;20421;-72
2022/08/24 12:43:30;;;;;;;3.00;1.80;;;30.10;1.00;;;;;;5072652;28;20483;-72
2022/08/24 12:46:00;;;;;;;4.90;1.73;;;29.90;1.00;;;;;;5054786;28;20427;-72
2022/08/24 12:49:00;;;;;;;2.30;1.50;;;29.90;1.00;;;;;;5073056;28;20498;-73
2022/08/24 12:51:50;;;;;;;4.33;1.20;;;30.00;1.00;;;;;;5073240;28;20432;-73
2022/08/24 12:54:37;;;;;;;2.13;1.93;;;29.90;1.00;;;;;;5055102;28;20421;-73
2022/08/24 12:57:11;;;;;;;1.60;1.50;;;29.90;1.00;;;;;;5072294;28;20506;-73
2022/08/24 12:59:37;;;;;;;2.30;1.27;;;29.90;1.00;;;;;;5073064;28;20407;-72
2022/08/24 13:02:13;;;;;;;2.00;1.50;;;29.70;1.00;;;;;;5054514;28;20460;-73
2022/08/24 13:04:48;;;;;;;2.17;1.97;;;29.50;1.00;;;;;;5054974;28;20657;-72
2022/08/24 13:07:23;;;;;;;3.50;1.60;;;29.50;1.00;;;;;;5071961;28;20423;-73
2022/08/24 13:10:08;;;;;;;1.80;1.70;;;29.50;1.00;;;;;;5055158;28;20761;-73
2022/08/24 13:12:37;;;;;;;2.10;1.37;;;29.50;1.00;;;;;;5054936;28;20417;-71
2022/08/24 13:15:21;;;;;;;4.80;1.63;;;29.50;1.00;;;;;;5055019;28;20420;-72
2022/08/24 13:17:49;;;;;;;2.93;1.60;;;29.40;1.00;;;;;;5071397;28;20507;-72
2022/08/24 13:20:47;;;;;;;2.57;1.70;;;29.40;1.00;;;;;;5054752;28;20413;-72
2022/08/24 13:23:17;;;;;;;2.30;1.70;;;29.20;1.00;;;;;;5072665;28;20460;-73
2022/08/24 13:25:46;;;;;;;2.70;1.67;;;29.20;1.00;;;;;;5076629;28;20404;-72
2022/08/24 13:28:23;;;;;;;1.63;1.40;;;29.20;1.00;;;;;;5057981;28;20980;-73
2022/08/24 13:31:12;;;;;;;4.03;1.70;;;28.90;1.00;;;;;;5058454;28;20447;-73
2022/08/24 13:33:53;;;;;;;2.90;1.73;;;28.90;1.00;;;;;;5058765;28;20903;-72
2022/08/24 13:36:33;;;;;;;2.40;1.87;;;28.80;1.00;;;;;;5057702;28;20484;-73
2022/08/24 13:39:10;;;;;;;2.80;1.60;;;28.80;1.00;;;;;;5058083;28;20515;-71
2022/08/24 13:42:00;;;;;;;3.10;1.60;;;28.90;1.00;;;;;;5058317;28;20408;-75
2022/08/24 13:44:25;;;;;;;1.50;1.30;;;29.10;1.00;;;;;;5056695;28;20439;-74
2022/08/24 13:47:12;;;;;;;10.00;2.13;;;29.10;1.00;;;;;;5075342;28;20876;-74
2022/08/24 13:50:13;;;;;;;1.77;1.57;;;29.10;1.00;;;;;;5076392;28;20257;-74
2022/08/24 13:52:58;;;;;;;3.47;1.80;;;29.10;1.00;;;;;;5033340;28;20427;-72